Time;durP1;ratioP1;P1;durP2;ratioP2;P2;SDS_P1;SDS_P2;PMS_P1;PMS_P2;Temp;Humidity;BMP_temperature;BMP_pressure;BME280_temperature;BME280_humidity;BME280_pressure;Samples;Min_cycle;Max_cycle;Signal;HPM_P1;HPM_P2
2022/08/04 00:00:04;;;;;;;6.07;2.10;;;25.00;99.90;;;;;;5078838;28;20032;-59
2022/08/04 00:02:36;;;;;;;4.18;1.77;;;25.00;99.90;;;;;;5079268;28;20028;-60
2022/08/04 00:05:03;;;;;;;;;;;25.00;99.90;;;;;;5079350;28;20028;-59
2022/08/04 00:07:46;;;;;;;4.50;1.80;;;25.00;99.90;;;;;;5078829;28;20008;-59
2022/08/04 00:10:16;;;;;;;4.30;1.73;;;25.00;99.90;;;;;;5078785;28;20039;-60
2022/08/04 00:12:48;;;;;;;4.65;1.92;;;25.00;99.90;;;;;;5079082;28;20024;-60
2022/08/04 00:15:16;;;;;;;3.78;2.22;;;24.90;99.90;;;;;;5078627;28;20166;-60
2022/08/04 00:17:53;;;;;;;5.80;1.70;;;24.80;99.90;;;;;;5078542;28;20035;-60
2022/08/04 00:20:20;;;;;;;4.82;1.90;;;24.60;99.90;;;;;;5077890;28;20043;-59
2022/08/04 00:22:47;;;;;;;3.40;2.05;;;24.60;99.90;;;;;;5077895;28;20058;-60
2022/08/04 00:25:14;;;;;;;7.35;2.05;;;24.60;99.90;;;;;;5078416;28;20120;-59
2022/08/04 00:27:40;;;;;;;3.65;1.65;;;24.70;99.90;;;;;;5078484;28;20407;-59
2022/08/04 00:30:06;;;;;;;5.07;1.80;;;24.70;99.90;;;;;;5077669;28;20025;-59
2022/08/04 00:32:32;;;;;;;4.22;2.22;;;24.70;99.90;;;;;;5078300;28;20032;-59
2022/08/04 00:34:59;;;;;;;4.43;1.80;;;24.80;99.90;;;;;;5078228;28;20024;-59
2022/08/04 00:37:26;;;;;;;5.15;2.05;;;24.70;99.90;;;;;;5078176;28;20056;-59
2022/08/04 00:39:56;;;;;;;5.30;2.00;;;24.60;99.90;;;;;;5078109;28;20025;-59
2022/08/04 00:42:45;;;;;;;5.13;2.05;;;24.60;99.90;;;;;;5078084;28;20085;-59
2022/08/04 00:45:38;;;;;;;5.38;2.20;;;24.50;99.90;;;;;;5077956;28;20029;-59
2022/08/04 00:48:15;;;;;;;9.27;2.20;;;24.40;99.90;;;;;;5077136;28;20055;-59
2022/08/04 00:51:03;;;;;;;6.18;2.10;;;24.40;99.90;;;;;;5077951;28;20094;-59
2022/08/04 00:53:47;;;;;;;6.18;2.00;;;24.40;99.90;;;;;;5077578;28;20162;-59
2022/08/04 00:56:19;;;;;;;4.97;2.28;;;24.30;99.90;;;;;;5077811;28;20043;-59
2022/08/04 00:59:09;;;;;;;6.35;2.25;;;24.30;99.90;;;;;;5077486;28;20389;-59
2022/08/04 01:01:53;;;;;;;3.92;1.90;;;24.30;99.90;;;;;;5076976;28;20084;-59
2022/08/04 01:04:28;;;;;;;5.88;1.95;;;24.30;99.90;;;;;;5077885;28;20383;-59
2022/08/04 01:07:13;;;;;;;7.85;2.45;;;24.20;99.90;;;;;;5077970;28;20295;-59
2022/08/04 01:09:41;;;;;;;5.78;2.20;;;24.20;99.90;;;;;;5077497;28;20036;-59
2022/08/04 01:12:16;;;;;;;4.72;2.40;;;24.20;99.90;;;;;;5077563;28;20376;-59
2022/08/04 01:14:45;;;;;;;3.15;1.70;;;24.20;99.90;;;;;;5077628;28;20032;-60
2022/08/04 01:17:19;;;;;;;3.90;1.80;;;24.10;99.90;;;;;;5077493;28;20055;-59
2022/08/04 01:20:19;;;;;;;4.65;1.90;;;24.20;99.90;;;;;;5077551;28;20498;-59
2022/08/04 01:23:00;;;;;;;3.58;1.63;;;24.20;99.90;;;;;;5077105;28;20043;-59
2022/08/04 01:25:51;;;;;;;3.95;1.77;;;24.10;99.90;;;;;;5077106;28;20025;-59
2022/08/04 01:28:39;;;;;;;4.25;1.67;;;24.00;99.90;;;;;;5077268;28;20043;-59
2022/08/04 01:31:19;;;;;;;7.32;2.13;;;23.90;99.90;;;;;;5077381;28;20436;-59
2022/08/04 01:33:49;;;;;;;3.60;1.80;;;23.80;99.90;;;;;;5077556;28;20044;-59
2022/08/04 01:36:16;;;;;;;3.58;1.75;;;23.80;99.90;;;;;;5077100;28;20044;-59
2022/08/04 01:38:43;;;;;;;4.75;1.83;;;23.80;99.90;;;;;;5077052;28;20072;-59
2022/08/04 01:41:13;;;;;;;4.60;1.70;;;23.90;99.90;;;;;;5059805;28;20029;-59
2022/08/04 01:43:43;;;;;;;4.47;1.60;;;23.90;99.90;;;;;;5077024;28;20086;-59
2022/08/04 01:46:12;;;;;;;3.90;1.88;;;23.90;99.90;;;;;;5077041;28;20020;-59
2022/08/04 01:48:39;;;;;;;4.15;1.60;;;24.00;99.90;;;;;;5077012;28;20056;-59
2022/08/04 01:51:07;;;;;;;3.97;1.92;;;23.90;99.90;;;;;;5077035;28;20025;-59
2022/08/04 01:53:40;;;;;;;3.55;1.70;;;23.80;99.90;;;;;;5076900;28;20044;-59
2022/08/04 01:56:08;;;;;;;3.80;2.10;;;23.80;99.90;;;;;;5076079;28;20029;-59
2022/08/04 01:58:35;;;;;;;6.38;1.63;;;23.70;99.90;;;;;;5076586;28;20050;-59
2022/08/04 02:01:12;;;;;;;5.40;2.17;;;23.70;99.90;;;;;;5076173;28;20037;-59
2022/08/04 02:03:40;;;;;;;6.93;2.00;;;23.80;99.90;;;;;;5076852;28;20044;-59
2022/08/04 02:06:20;;;;;;;7.72;2.15;;;23.70;99.90;;;;;;5076784;28;20085;-59
2022/08/04 02:08:59;;;;;;;4.22;1.90;;;23.70;99.90;;;;;;5076767;28;20040;-59
2022/08/04 02:11:25;;;;;;;7.35;2.35;;;23.70;99.90;;;;;;5076837;28;20056;-59
2022/08/04 02:13:57;;;;;;;5.43;1.67;;;23.70;99.90;;;;;;5076774;28;20305;-59
2022/08/04 02:16:43;;;;;;;6.43;2.00;;;23.70;99.90;;;;;;5076710;28;20032;-59
2022/08/04 02:19:46;;;;;;;4.00;1.90;;;23.70;99.90;;;;;;5076628;28;20036;-59
2022/08/04 02:22:17;;;;;;;11.27;2.38;;;23.70;99.90;;;;;;5076681;28;20067;-59
2022/08/04 02:24:49;;;;;;;2.83;1.80;;;23.60;99.90;;;;;;5076612;28;20025;-60
2022/08/04 02:27:20;;;;;;;7.60;2.35;;;23.60;99.90;;;;;;5076585;28;20033;-59
2022/08/04 02:29:53;;;;;;;4.97;1.88;;;23.40;99.90;;;;;;5076755;28;20036;-59
2022/08/04 02:32:26;;;;;;;;;;;23.30;99.90;;;;;;5076938;28;20281;-59
2022/08/04 02:35:10;;;;;;;3.17;1.70;;;23.30;99.90;;;;;;5077448;28;19919;-59
2022/08/04 02:37:37;;;;;;;5.53;2.33;;;23.30;99.90;;;;;;5081003;28;20036;-59
2022/08/04 02:40:05;;;;;;;4.22;2.25;;;23.40;99.90;;;;;;5079696;28;20032;-59
2022/08/04 02:42:34;;;;;;;4.45;2.10;;;23.50;99.90;;;;;;5080390;28;20036;-59
2022/08/04 02:45:00;;;;;;;8.40;2.38;;;23.50;99.90;;;;;;5080323;28;20103;-59
2022/08/04 02:47:28;;;;;;;5.70;2.30;;;23.50;99.90;;;;;;5079597;28;20064;-59
2022/08/04 02:49:56;;;;;;;7.05;2.33;;;23.30;99.90;;;;;;5080199;28;20024;-59
2022/08/04 02:52:23;;;;;;;5.43;2.33;;;23.20;99.90;;;;;;5080240;28;20021;-60
2022/08/04 02:54:55;;;;;;;7.60;2.28;;;23.20;99.90;;;;;;5080101;28;20045;-59
2022/08/04 02:57:25;;;;;;;11.05;2.55;;;23.20;99.90;;;;;;5079419;28;20045;-59
2022/08/04 03:00:11;;;;;;;6.05;2.10;;;23.20;99.90;;;;;;5079964;28;20299;-59
2022/08/04 03:02:36;;;;;;;8.80;2.80;;;23.20;99.90;;;;;;5080056;28;20115;-59
2022/08/04 03:05:09;;;;;;;5.68;2.90;;;23.10;99.90;;;;;;5079947;28;20100;-59
2022/08/04 03:07:57;;;;;;;6.72;2.55;;;23.10;99.90;;;;;;5079984;28;20028;-60
2022/08/04 03:10:42;;;;;;;13.95;3.30;;;23.10;99.90;;;;;;5079915;28;20355;-59
2022/08/04 03:13:36;;;;;;;7.97;2.50;;;23.00;99.90;;;;;;5080276;28;20027;-58
2022/08/04 03:16:13;;;;;;;10.77;2.97;;;23.00;99.90;;;;;;5079847;28;20028;-60
2022/08/04 03:18:48;;;;;;;7.00;3.38;;;23.00;99.90;;;;;;5079620;28;20046;-59
2022/08/04 03:21:22;;;;;;;10.18;3.63;;;23.00;99.90;;;;;;5079703;28;20033;-58
2022/08/04 03:24:09;;;;;;;10.63;5.03;;;23.10;99.90;;;;;;5079565;28;20024;-59
2022/08/04 03:27:09;;;;;;;10.73;4.25;;;23.10;99.90;;;;;;5079576;28;20033;-58
2022/08/04 03:29:58;;;;;;;6.80;3.60;;;23.00;99.90;;;;;;5078755;28;20048;-59
2022/08/04 03:32:42;;;;;;;8.57;3.30;;;23.00;99.90;;;;;;5078758;28;20431;-59
2022/08/04 03:35:59;;;;;;;10.00;3.20;;;23.00;99.90;;;;;;5079374;28;20034;-60
2022/08/04 03:38:43;;;;;;;8.20;3.70;;;23.10;99.90;;;;;;5078394;28;20079;-59
2022/08/04 03:41:33;;;;;;;8.90;3.38;;;23.10;99.90;;;;;;5079953;28;20021;-59
2022/08/04 03:44:34;;;;;;;12.10;4.00;;;23.10;99.90;;;;;;5079606;28;20037;-59
2022/08/04 03:47:27;;;;;;;8.55;3.60;;;23.10;99.90;;;;;;5079204;28;20025;-58
2022/08/04 03:49:52;;;;;;;;;;;23.10;99.90;;;;;;5079783;28;20047;-59
2022/08/04 03:55:30;;;;;;;9.50;3.92;;;23.10;99.90;;;;;;5079053;28;20158;-58
2022/08/04 03:58:05;;;;;;;8.05;3.40;;;23.10;99.90;;;;;;5078875;28;20345;-58
2022/08/04 04:00:40;;;;;;;7.68;2.50;;;23.10;99.90;;;;;;5079094;28;20158;-59
2022/08/04 04:03:47;;;;;;;7.15;2.47;;;23.20;99.90;;;;;;5079468;28;20060;-58
2022/08/04 04:06:45;;;;;;;4.88;2.33;;;23.10;99.90;;;;;;5078927;28;20357;-58
2022/08/04 04:09:45;;;;;;;6.38;2.55;;;23.20;99.90;;;;;;5077864;28;20047;-59
2022/08/04 04:12:37;;;;;;;6.72;2.17;;;23.10;99.90;;;;;;5078702;28;20380;-59
2022/08/04 04:15:18;;;;;;;7.50;2.33;;;23.10;99.90;;;;;;5078179;28;20028;-58
2022/08/04 04:18:11;;;;;;;4.28;2.03;;;23.10;99.90;;;;;;5079035;28;20033;-58
2022/08/04 04:21:02;;;;;;;5.03;2.15;;;23.10;99.90;;;;;;5078491;28;20071;-58
2022/08/04 04:24:11;;;;;;;6.32;2.20;;;23.10;99.90;;;;;;5078954;28;20062;-59
2022/08/04 04:27:10;;;;;;;3.92;1.92;;;23.00;99.90;;;;;;5077104;28;20071;-58
2022/08/04 04:30:05;;;;;;;8.07;2.30;;;23.00;99.90;;;;;;5078191;28;20032;-58
2022/08/04 04:32:42;;;;;;;3.67;2.22;;;23.10;99.90;;;;;;5078353;28;20150;-59
2022/08/04 04:35:24;;;;;;;7.97;2.53;;;23.10;99.90;;;;;;5077288;28;20471;-59
2022/08/04 04:38:11;;;;;;;4.80;2.50;;;23.10;99.90;;;;;;5077360;28;20032;-59
2022/08/04 04:41:02;;;;;;;5.00;2.20;;;23.20;99.90;;;;;;5078740;28;20119;-60
2022/08/04 04:43:54;;;;;;;9.40;2.35;;;23.10;99.90;;;;;;5077339;28;20389;-58
2022/08/04 04:46:39;;;;;;;8.53;2.53;;;23.10;99.90;;;;;;5078670;28;20035;-58
2022/08/04 04:49:33;;;;;;;7.47;2.38;;;23.20;99.90;;;;;;5077248;28;20274;-59
2022/08/04 04:52:12;;;;;;;5.82;2.30;;;23.30;99.90;;;;;;5077920;28;20447;-59
2022/08/04 04:54:41;;;;;;;6.93;2.47;;;23.40;99.90;;;;;;5077772;28;20400;-59
2022/08/04 04:57:17;;;;;;;6.57;2.60;;;23.50;99.90;;;;;;5077457;28;20055;-59
2022/08/04 04:59:57;;;;;;;5.05;2.00;;;23.40;99.90;;;;;;5076797;28;20040;-59
2022/08/04 05:02:25;;;;;;;4.10;2.00;;;23.50;99.90;;;;;;5078064;28;20036;-59
2022/08/04 05:05:06;;;;;;;4.72;2.00;;;23.50;99.90;;;;;;5077630;28;20411;-59
2022/08/04 05:07:49;;;;;;;4.93;1.95;;;23.40;99.90;;;;;;5077642;28;20039;-58
2022/08/04 05:10:42;;;;;;;2.53;1.70;;;23.50;99.90;;;;;;5077629;28;20377;-59
2022/08/04 05:13:26;;;;;;;6.88;1.90;;;23.60;99.90;;;;;;5077542;28;20037;-59
2022/08/04 05:15:57;;;;;;;6.38;2.33;;;23.60;99.90;;;;;;5077392;28;20119;-59
2022/08/04 05:18:27;;;;;;;6.82;1.77;;;23.60;99.90;;;;;;5077309;28;20033;-59
2022/08/04 05:21:03;;;;;;;7.18;1.98;;;23.70;99.90;;;;;;5076623;28;20032;-59
2022/08/04 05:23:32;;;;;;;5.82;1.92;;;23.80;99.90;;;;;;5076767;28;20338;-59
2022/08/04 05:26:09;;;;;;;3.95;1.60;;;23.80;99.90;;;;;;5077523;28;20449;-59
2022/08/04 05:28:47;;;;;;;5.25;1.80;;;23.80;99.90;;;;;;5077418;28;20403;-59
2022/08/04 05:31:41;;;;;;;5.55;2.20;;;23.80;99.90;;;;;;5076464;28;20097;-58
2022/08/04 05:34:25;;;;;;;4.70;1.95;;;23.80;99.90;;;;;;5076973;28;20048;-59
2022/08/04 05:37:00;;;;;;;6.72;2.00;;;23.80;99.90;;;;;;5077447;28;20060;-59
2022/08/04 05:39:36;;;;;;;5.60;2.13;;;23.70;99.90;;;;;;5076555;28;20036;-60
2022/08/04 05:42:03;;;;;;;8.13;2.95;;;23.70;99.90;;;;;;5077060;28;20047;-59
2022/08/04 05:44:30;;;;;;;9.98;2.78;;;23.80;99.90;;;;;;5076243;28;20307;-59
2022/08/04 05:46:57;;;;;;;6.22;2.33;;;24.00;99.90;;;;;;5076948;28;20056;-60
2022/08/04 05:49:25;;;;;;;4.05;2.20;;;24.00;99.90;;;;;;5076931;28;20303;-60
2022/08/04 05:51:54;;;;;;;8.93;2.70;;;24.00;99.90;;;;;;5077549;28;20032;-59
2022/08/04 05:54:22;;;;;;;8.32;2.35;;;23.80;99.90;;;;;;5077227;28;20097;-59
2022/08/04 05:56:49;;;;;;;9.10;2.20;;;23.80;99.90;;;;;;5076718;28;20056;-60
2022/08/04 05:59:17;;;;;;;6.45;2.10;;;23.80;99.90;;;;;;5076735;28;20029;-59
2022/08/04 06:01:45;;;;;;;11.10;2.65;;;23.90;99.90;;;;;;5076795;28;20029;-60
2022/08/04 06:04:12;;;;;;;5.47;2.00;;;24.10;99.90;;;;;;5076643;28;20021;-59
2022/08/04 06:06:39;;;;;;;9.57;3.10;;;24.00;99.90;;;;;;5076724;28;20068;-60
2022/08/04 06:09:05;;;;;;;5.43;2.38;;;24.10;99.90;;;;;;5076633;28;20039;-58
2022/08/04 06:11:34;;;;;;;6.85;2.50;;;24.00;99.90;;;;;;5076471;28;20028;-58
2022/08/04 06:14:03;;;;;;;7.45;2.50;;;24.00;99.90;;;;;;5076569;28;20123;-59
2022/08/04 06:16:39;;;;;;;7.68;2.75;;;24.10;99.90;;;;;;5077200;28;20036;-59
2022/08/04 06:19:12;;;;;;;6.40;2.60;;;24.10;99.90;;;;;;5076599;28;20033;-59
2022/08/04 06:21:42;;;;;;;8.85;2.47;;;24.20;99.90;;;;;;5076711;28;20037;-58
2022/08/04 06:24:11;;;;;;;10.73;3.38;;;24.30;99.90;;;;;;5076566;28;20111;-59
2022/08/04 06:26:39;;;;;;;13.23;3.40;;;24.40;99.90;;;;;;5076531;28;20089;-58
2022/08/04 06:29:15;;;;;;;9.10;3.33;;;24.50;99.90;;;;;;5076517;28;20106;-59
2022/08/04 06:31:42;;;;;;;8.07;2.80;;;24.40;99.90;;;;;;5076574;28;20099;-59
2022/08/04 06:34:11;;;;;;;9.00;3.00;;;24.50;99.90;;;;;;5076551;28;20119;-59
2022/08/04 06:36:39;;;;;;;12.65;2.45;;;24.50;99.90;;;;;;5076511;28;20062;-59
2022/08/04 06:39:07;;;;;;;6.45;2.42;;;24.60;99.90;;;;;;5076426;28;20043;-59
2022/08/04 06:41:35;;;;;;;10.38;2.97;;;24.60;99.90;;;;;;5076511;28;20300;-59
2022/08/04 06:44:06;;;;;;;9.57;3.05;;;24.80;99.90;;;;;;5076402;28;20016;-59
2022/08/04 06:46:34;;;;;;;10.90;3.35;;;24.90;99.90;;;;;;5076469;28;20036;-60
2022/08/04 06:49:00;;;;;;;5.45;2.72;;;24.80;99.90;;;;;;5076433;28;20024;-59
2022/08/04 06:51:27;;;;;;;7.38;2.95;;;24.80;99.90;;;;;;5076449;28;20107;-59
2022/08/04 06:53:53;;;;;;;10.10;2.92;;;24.80;99.90;;;;;;5076306;28;20024;-60
2022/08/04 06:56:19;;;;;;;7.82;2.65;;;24.90;99.90;;;;;;5076306;28;20035;-59
2022/08/04 06:58:46;;;;;;;11.35;3.17;;;25.00;99.90;;;;;;5075251;28;20045;-59
2022/08/04 07:01:18;;;;;;;12.82;3.03;;;25.00;99.90;;;;;;5076318;28;20093;-60
2022/08/04 07:03:44;;;;;;;7.32;2.90;;;25.00;99.90;;;;;;5076165;28;20029;-59
2022/08/04 07:06:10;;;;;;;7.30;2.97;;;25.10;99.90;;;;;;5076290;28;20021;-58
2022/08/04 07:08:36;;;;;;;8.50;3.53;;;25.20;99.90;;;;;;5075459;28;20040;-59
2022/08/04 07:11:04;;;;;;;11.18;4.03;;;25.30;99.90;;;;;;5076131;28;20029;-59
2022/08/04 07:13:31;;;;;;;10.57;3.85;;;25.40;99.90;;;;;;5076433;28;20036;-59
2022/08/04 07:15:58;;;;;;;12.45;4.18;;;25.50;99.90;;;;;;5076215;28;20358;-58
2022/08/04 07:18:24;;;;;;;10.35;4.85;;;25.80;99.90;;;;;;5076090;28;20044;-59
2022/08/04 07:20:51;;;;;;;9.70;4.68;;;25.90;99.90;;;;;;5076685;28;20020;-59
2022/08/04 07:23:24;;;;;;;9.45;5.03;;;26.00;99.90;;;;;;5078890;28;20114;-58
2022/08/04 07:25:54;;;;;;;11.25;5.40;;;26.00;99.90;;;;;;5080035;28;20047;-58
2022/08/04 07:28:22;;;;;;;10.10;5.50;;;26.10;99.90;;;;;;5079750;28;20083;-59
2022/08/04 07:30:48;;;;;;;15.68;6.95;;;26.00;99.90;;;;;;5079557;28;20050;-59
2022/08/04 07:33:17;;;;;;;12.38;6.80;;;26.20;99.90;;;;;;5079488;28;20035;-59
2022/08/04 07:35:46;;;;;;;16.25;6.88;;;26.10;99.90;;;;;;5079430;28;20031;-59
2022/08/04 07:38:12;;;;;;;11.95;6.25;;;26.10;99.90;;;;;;5079618;28;20073;-59
2022/08/04 07:40:38;;;;;;;12.45;6.25;;;25.90;99.90;;;;;;5079365;28;20033;-59
2022/08/04 07:43:05;;;;;;;11.30;6.78;;;26.00;99.90;;;;;;5079265;28;20064;-59
2022/08/04 07:45:31;;;;;;;10.25;5.40;;;26.00;99.90;;;;;;5079298;28;20058;-58
2022/08/04 07:47:57;;;;;;;15.52;5.72;;;26.00;99.90;;;;;;5079177;28;20024;-58
2022/08/04 07:50:25;;;;;;;8.48;4.55;;;26.00;99.90;;;;;;5078534;28;20048;-59
2022/08/04 07:52:52;;;;;;;10.25;3.75;;;26.20;99.90;;;;;;5079240;28;20031;-59
2022/08/04 07:55:19;;;;;;;7.60;4.30;;;26.40;99.90;;;;;;5079091;28;20032;-59
2022/08/04 07:57:45;;;;;;;9.57;4.93;;;26.60;99.90;;;;;;5077942;28;20044;-59
2022/08/04 08:00:13;;;;;;;12.55;4.93;;;26.80;99.90;;;;;;5078308;28;20037;-61
2022/08/04 08:02:41;;;;;;;8.73;5.25;;;26.40;99.90;;;;;;5078973;28;20036;-62
2022/08/04 08:05:11;;;;;;;8.10;4.47;;;26.60;99.90;;;;;;5078836;28;20024;-61
2022/08/04 08:07:38;;;;;;;10.50;4.30;;;26.40;99.90;;;;;;5078029;28;20028;-60
2022/08/04 08:10:04;;;;;;;10.02;4.53;;;26.40;99.90;;;;;;5078805;28;20055;-60
2022/08/04 08:12:32;;;;;;;6.72;4.18;;;26.20;99.90;;;;;;5079085;28;20316;-61
2022/08/04 08:14:59;;;;;;;8.90;4.80;;;26.00;99.90;;;;;;5078683;28;20075;-60
2022/08/04 08:17:25;;;;;;;8.00;4.20;;;26.00;99.90;;;;;;5078657;28;20028;-60
2022/08/04 08:19:51;;;;;;;8.80;4.68;;;25.80;99.90;;;;;;5078558;28;20048;-60
2022/08/04 08:22:17;;;;;;;6.95;4.32;;;25.70;99.90;;;;;;5078151;28;20442;-58
2022/08/04 08:24:43;;;;;;;9.73;4.00;;;25.70;99.90;;;;;;5078508;28;20020;-59
2022/08/04 08:27:09;;;;;;;8.55;4.07;;;25.80;99.90;;;;;;5078409;28;20032;-59
2022/08/04 08:29:36;;;;;;;7.80;3.55;;;25.80;99.90;;;;;;5078340;28;20028;-60
2022/08/04 08:32:04;;;;;;;9.15;3.83;;;25.70;99.90;;;;;;5078531;28;20119;-59
2022/08/04 08:34:31;;;;;;;8.75;3.63;;;25.80;99.90;;;;;;5077311;28;20414;-60
2022/08/04 08:37:13;;;;;;;7.60;3.10;;;25.20;99.90;;;;;;5078092;28;20070;-60
2022/08/04 08:39:47;;;;;;;8.43;3.88;;;25.00;99.90;;;;;;5078061;28;20111;-60
2022/08/04 08:42:25;;;;;;;5.43;3.38;;;24.90;99.90;;;;;;5078164;28;20020;-61
2022/08/04 08:45:08;;;;;;;4.75;3.20;;;25.00;99.90;;;;;;5078088;28;20386;-60
2022/08/04 08:47:34;;;;;;;7.70;3.60;;;24.60;99.90;;;;;;5077981;28;20081;-60
2022/08/04 08:50:39;;;;;;;8.40;3.53;;;24.20;99.90;;;;;;5077958;28;20323;-60
2022/08/04 08:53:16;;;;;;;8.30;4.03;;;24.00;99.90;;;;;;5077658;28;20036;-59
2022/08/04 08:55:53;;;;;;;8.63;4.05;;;23.70;99.90;;;;;;5077939;28;20024;-60
2022/08/04 08:58:43;;;;;;;13.93;3.90;;;23.60;99.90;;;;;;5077690;28;20054;-61
2022/08/04 09:01:21;;;;;;;7.45;3.50;;;23.40;99.90;;;;;;5077786;28;20040;-61
2022/08/04 09:04:32;;;;;;;8.18;3.92;;;23.40;99.90;;;;;;5077743;28;20301;-61
2022/08/04 09:07:30;;;;;;;4.50;3.28;;;23.40;99.90;;;;;;5077734;28;20028;-61
2022/08/04 09:10:08;;;;;;;8.35;4.55;;;23.50;99.90;;;;;;5077681;28;20024;-61
2022/08/04 09:12:58;;;;;;;8.00;3.58;;;23.70;99.90;;;;;;5077643;28;20450;-60
2022/08/04 09:15:38;;;;;;;5.07;3.45;;;23.70;99.90;;;;;;5077592;28;20044;-60
2022/08/04 09:18:52;;;;;;;7.13;3.30;;;23.70;99.90;;;;;;5077865;28;20032;-60
2022/08/04 09:21:43;;;;;;;6.82;3.83;;;23.70;99.90;;;;;;5076319;28;20430;-62
2022/08/04 09:24:23;;;;;;;8.05;3.40;;;23.60;99.90;;;;;;5077350;28;20034;-59
2022/08/04 09:26:57;;;;;;;5.78;3.45;;;23.60;99.90;;;;;;5077750;28;20387;-60
2022/08/04 09:29:38;;;;;;;7.20;3.70;;;23.70;99.90;;;;;;5077449;28;20111;-60
2022/08/04 09:32:22;;;;;;;6.63;3.40;;;23.70;99.90;;;;;;5077166;28;20412;-60
2022/08/04 09:35:18;;;;;;;5.63;3.60;;;23.80;99.90;;;;;;5077238;28;20312;-60
2022/08/04 09:37:56;;;;;;;4.68;3.40;;;23.80;99.90;;;;;;5077155;28;20028;-61
2022/08/04 09:40:27;;;;;;;7.75;4.30;;;23.70;99.90;;;;;;5077729;28;20029;-61
2022/08/04 09:42:59;;;;;;;8.98;4.28;;;23.60;99.90;;;;;;5077181;28;20032;-61
2022/08/04 09:45:34;;;;;;;7.15;3.78;;;23.70;99.90;;;;;;5076740;28;20319;-61
2022/08/04 09:48:12;;;;;;;5.13;3.38;;;23.80;99.90;;;;;;5077018;28;20031;-61
2022/08/04 09:50:42;;;;;;;7.30;3.85;;;23.90;99.90;;;;;;5077101;28;20021;-60
2022/08/04 09:53:49;;;;;;;9.10;4.05;;;23.90;99.90;;;;;;5077378;28;20300;-61
2022/08/04 09:57:06;;;;;;;8.80;3.80;;;24.10;99.90;;;;;;5076371;28;20410;-60
2022/08/04 09:59:50;;;;;;;6.45;3.60;;;24.00;99.90;;;;;;5075479;28;20041;-60
2022/08/04 10:02:20;;;;;;;5.30;3.83;;;24.00;99.90;;;;;;5075558;28;20028;-60
2022/08/04 10:04:49;;;;;;;8.45;3.72;;;23.90;99.90;;;;;;5076582;28;20131;-60
2022/08/04 10:07:27;;;;;;;6.53;3.70;;;23.60;99.90;;;;;;5076902;28;20032;-61
2022/08/04 10:10:32;;;;;;;7.07;3.60;;;23.70;99.90;;;;;;5076078;28;20277;-61
2022/08/04 10:13:12;;;;;;;5.07;3.08;;;24.20;99.90;;;;;;5076781;28;20024;-61
2022/08/04 10:15:47;;;;;;;5.68;3.15;;;24.60;99.90;;;;;;5076207;28;20051;-61
2022/08/04 10:18:22;;;;;;;6.30;3.30;;;24.80;99.90;;;;;;5076981;28;20033;-61
2022/08/04 10:21:17;;;;;;;8.20;3.65;;;25.10;99.90;;;;;;5076801;28;20024;-61
2022/08/04 10:24:10;;;;;;;4.18;2.78;;;25.00;99.90;;;;;;5076054;28;20292;-61
2022/08/04 10:26:46;;;;;;;5.43;3.40;;;25.10;99.90;;;;;;5076747;28;20028;-62
2022/08/04 10:29:35;;;;;;;7.07;3.63;;;25.30;99.90;;;;;;5076522;28;20410;-62
2022/08/04 10:32:10;;;;;;;4.47;3.50;;;25.80;99.90;;;;;;5076594;28;20028;-62
2022/08/04 10:34:58;;;;;;;5.22;3.58;;;26.10;99.90;;;;;;5075779;28;20420;-62
2022/08/04 10:37:31;;;;;;;8.48;4.40;;;26.50;99.90;;;;;;5076668;28;20115;-62
2022/08/04 10:43:10;;;;;;;9.23;4.45;;;26.70;99.90;;;;;;5076531;28;20104;-60
2022/08/04 10:45:45;;;;;;;5.03;4.07;;;26.90;99.90;;;;;;5076486;28;20063;-62
2022/08/04 10:48:32;;;;;;;4.18;3.55;;;27.20;99.90;;;;;;5076669;28;20037;-62
2022/08/04 10:51:04;;;;;;;6.85;3.90;;;27.70;99.90;;;;;;5076451;28;20028;-62
2022/08/04 10:53:30;;;;;;;;;;;27.90;99.90;;;;;;5076836;28;20025;-61
2022/08/04 10:56:10;;;;;;;7.30;3.97;;;28.20;99.90;;;;;;5076445;28;19930;-61
2022/08/04 10:58:51;;;;;;;6.70;3.08;;;28.40;99.90;;;;;;5079765;28;20041;-61
2022/08/04 11:01:24;;;;;;;6.18;3.08;;;28.60;99.90;;;;;;5080271;28;20056;-62
2022/08/04 11:04:02;;;;;;;11.43;4.15;;;29.10;99.90;;;;;;5080092;28;20024;-62
2022/08/04 11:06:29;;;;;;;7.18;2.80;;;30.00;99.90;;;;;;5080373;28;20345;-62
2022/08/04 11:08:57;;;;;;;7.60;3.63;;;30.70;99.90;;;;;;5080187;28;20045;-62
2022/08/04 11:11:36;;;;;;;6.78;3.33;;;30.80;99.90;;;;;;5080004;28;20032;-62
2022/08/04 11:14:06;;;;;;;4.53;2.95;;;30.60;99.90;;;;;;5079898;28;20046;-62
2022/08/04 11:16:50;;;;;;;5.53;2.85;;;30.20;99.90;;;;;;5080119;28;20028;-62
2022/08/04 11:19:19;;;;;;;9.57;3.95;;;29.60;99.90;;;;;;5079513;28;20391;-62
2022/08/04 11:22:04;;;;;;;6.63;3.50;;;29.20;99.90;;;;;;5079636;28;20330;-61
2022/08/04 11:24:51;;;;;;;6.05;3.03;;;29.10;99.90;;;;;;5079947;28;20115;-62
2022/08/04 11:27:28;;;;;;;5.82;2.33;;;29.40;99.90;;;;;;5079963;28;20349;-61
2022/08/04 11:30:09;;;;;;;4.25;2.13;;;30.80;99.90;;;;;;5078942;28;20353;-61
2022/08/04 11:32:51;;;;;;;8.05;2.42;;;32.50;99.90;;;;;;5078734;28;20036;-61
2022/08/04 11:35:42;;;;;;;4.75;1.90;;;34.20;99.90;;;;;;5079582;28;20484;-60
2022/08/04 11:38:23;;;;;;;5.93;1.80;;;34.80;99.90;;;;;;5079378;28;20094;-60
2022/08/04 11:40:55;;;;;;;3.92;1.83;;;35.50;99.90;;;;;;5080073;28;20035;-60
2022/08/04 11:43:25;;;;;;;;;;;36.40;99.90;;;;;;5080054;28;20028;-60
2022/08/04 11:46:02;;;;;;;4.63;2.60;;;37.10;99.90;;;;;;5079205;28;19908;-60
2022/08/04 11:48:36;;;;;;;7.07;2.50;;;37.70;99.90;;;;;;5079435;28;20408;-60
2022/08/04 11:51:04;;;;;;;5.25;2.10;;;37.20;98.50;;;;;;5079211;28;20024;-60
2022/08/04 11:53:33;;;;;;;4.10;2.30;;;36.80;99.20;;;;;;5079081;28;20090;-61
2022/08/04 11:56:02;;;;;;;4.43;1.85;;;35.60;98.90;;;;;;5079743;28;20048;-61
2022/08/04 11:58:29;;;;;;;4.72;2.25;;;34.80;99.90;;;;;;5078878;28;20048;-61
2022/08/04 12:01:03;;;;;;;6.38;2.28;;;35.20;99.90;;;;;;5078388;28;20086;-60
2022/08/04 12:03:38;;;;;;;9.65;2.70;;;36.00;99.70;;;;;;5079247;28;20292;-61
2022/08/04 12:06:14;;;;;;;4.65;1.98;;;37.10;98.00;;;;;;5079601;28;20024;-61
2022/08/04 12:09:23;;;;;;;3.25;2.10;;;38.20;96.20;;;;;;5077679;28;20115;-61
2022/08/04 12:12:05;;;;;;;5.78;2.40;;;38.40;94.20;;;;;;5078102;28;20060;-61
2022/08/04 12:15:14;;;;;;;5.00;3.15;;;37.30;93.60;;;;;;5078797;28;20104;-60
2022/08/04 12:17:47;;;;;;;5.68;3.15;;;36.10;95.30;;;;;;5078713;28;20032;-60
2022/08/04 12:20:20;;;;;;;5.78;3.25;;;35.50;96.80;;;;;;5078675;28;20085;-60
2022/08/04 12:22:50;;;;;;;5.47;3.13;;;35.70;96.80;;;;;;5078736;28;20021;-62
2022/08/04 12:25:29;;;;;;;5.50;2.75;;;34.30;99.40;;;;;;5078837;28;20166;-61
2022/08/04 12:28:01;;;;;;;6.03;2.95;;;34.40;99.00;;;;;;5078552;28;20394;-61
2022/08/04 12:30:34;;;;;;;7.53;2.85;;;33.50;99.90;;;;;;5077693;28;20036;-61
2022/08/04 12:33:13;;;;;;;5.00;3.00;;;34.20;99.90;;;;;;5079011;28;20021;-61
2022/08/04 12:35:48;;;;;;;6.85;2.90;;;34.50;98.90;;;;;;5078495;28;20043;-59
2022/08/04 12:38:14;;;;;;;8.35;4.80;;;34.70;98.60;;;;;;5078210;28;20028;-58
2022/08/04 12:40:45;;;;;;;5.68;3.30;;;35.40;96.70;;;;;;5078463;28;20182;-62
2022/08/04 12:43:36;;;;;;;4.65;2.33;;;35.40;97.10;;;;;;5078198;28;20044;-61
2022/08/04 12:46:08;;;;;;;4.90;2.13;;;36.30;96.10;;;;;;5078266;28;20060;-60
2022/08/04 12:48:36;;;;;;;4.63;2.25;;;38.20;94.10;;;;;;5078454;28;20028;-60
2022/08/04 12:51:02;;;;;;;8.55;3.40;;;40.00;90.70;;;;;;5078400;28;20101;-61
2022/08/04 12:53:40;;;;;;;5.63;2.42;;;40.90;84.20;;;;;;5077840;28;20032;-61
2022/08/04 12:56:11;;;;;;;4.43;2.30;;;41.30;81.70;;;;;;5077935;28;20037;-61
2022/08/04 12:58:43;;;;;;;5.88;2.60;;;42.10;74.80;;;;;;5077737;28;20051;-60
2022/08/04 13:01:19;;;;;;;4.80;1.92;;;43.10;71.50;;;;;;5077220;28;20024;-61
2022/08/04 13:04:03;;;;;;;6.35;1.98;;;43.50;66.80;;;;;;5077111;28;20436;-61
2022/08/04 13:06:33;;;;;;;4.25;1.90;;;42.30;66.90;;;;;;5078233;28;20090;-61
2022/08/04 13:09:08;;;;;;;5.28;1.88;;;41.60;68.00;;;;;;5077622;28;20033;-60
2022/08/04 13:11:39;;;;;;;5.47;2.05;;;40.50;70.70;;;;;;5076995;28;20041;-60
2022/08/04 13:14:08;;;;;;;6.03;1.75;;;41.70;68.10;;;;;;5077943;28;20330;-60
2022/08/04 13:16:35;;;;;;;5.30;2.65;;;42.30;65.30;;;;;;5077834;28;20051;-60
2022/08/04 13:19:01;;;;;;;3.35;1.70;;;42.70;63.10;;;;;;5077226;28;20033;-61
2022/08/04 13:21:29;;;;;;;5.15;1.67;;;43.20;62.00;;;;;;5077159;28;20032;-61
2022/08/04 13:24:01;;;;;;;4.47;1.85;;;42.70;60.20;;;;;;5077397;28;20347;-61
2022/08/04 13:26:28;;;;;;;4.88;1.60;;;41.50;61.10;;;;;;5077456;28;20024;-59
2022/08/04 13:28:59;;;;;;;4.93;1.50;;;41.80;62.70;;;;;;5076856;28;20025;-60
2022/08/04 13:31:27;;;;;;;5.90;2.03;;;43.10;60.90;;;;;;5077406;28;20040;-61
2022/08/04 13:34:01;;;;;;;3.65;1.50;;;43.80;58.00;;;;;;5077299;28;20423;-60
2022/08/04 13:36:29;;;;;;;4.68;1.75;;;44.60;57.00;;;;;;5076642;28;20032;-59
2022/08/04 13:38:58;;;;;;;7.03;1.77;;;45.10;55.20;;;;;;5076340;28;20419;-60